createdAt,value
2018-07-12T00:01:51.712Z,96.30
2018-07-12T00:04:18.993Z,96.20
2018-07-12T00:06:46.188Z,96.70
2018-07-12T00:09:13.451Z,96.40
2018-07-12T00:11:40.691Z,96.20
2018-07-12T00:14:07.990Z,96.10
2018-07-12T00:16:35.417Z,96.00
2018-07-12T00:19:02.660Z,95.90
2018-07-12T00:21:29.905Z,95.80
2018-07-12T00:23:57.101Z,95.80
2018-07-12T00:26:24.354Z,95.90
2018-07-12T00:28:51.663Z,95.90
2018-07-12T00:31:18.883Z,96.20
2018-07-12T00:33:46.174Z,96.70
2018-07-12T00:36:13.441Z,96.60
2018-07-12T00:41:08.233Z,96.80
2018-07-12T00:43:35.465Z,96.70
2018-07-12T00:46:02.681Z,96.60
2018-07-12T00:48:29.979Z,96.60
2018-07-12T00:50:57.546Z,96.90
2018-07-12T00:53:24.818Z,97.20
2018-07-12T00:55:52.128Z,96.90
2018-07-12T00:58:19.391Z,96.90
2018-07-12T01:00:46.662Z,96.90
2018-07-12T01:03:13.909Z,96.90
2018-07-12T01:05:41.175Z,96.90
2018-07-12T01:08:08.393Z,97.10
2018-07-12T01:10:35.667Z,97.30
2018-07-12T01:13:02.927Z,97.20
2018-07-12T01:15:30.339Z,97.20
2018-07-12T01:17:57.583Z,97.40
2018-07-12T01:20:24.832Z,97.40
2018-07-12T01:22:52.055Z,97.80
2018-07-12T01:25:19.327Z,97.50
2018-07-12T01:27:46.552Z,97.70
2018-07-12T01:30:13.794Z,97.60
2018-07-12T01:32:41.073Z,97.80
2018-07-12T01:35:09.331Z,97.90
2018-07-12T01:37:36.587Z,98.00
2018-07-12T01:40:03.819Z,98.00
2018-07-12T01:42:31.094Z,98.10
2018-07-12T01:44:59.432Z,98.10
2018-07-12T01:47:26.666Z,98.20
2018-07-12T01:49:53.892Z,98.40
2018-07-12T01:52:21.430Z,98.50
2018-07-12T01:54:48.761Z,98.50
2018-07-12T01:57:16.084Z,98.50
2018-07-12T01:59:43.307Z,98.50
2018-07-12T02:02:10.582Z,98.30
2018-07-12T02:04:37.852Z,98.50
2018-07-12T02:07:05.150Z,98.50
2018-07-12T02:09:32.390Z,98.50
2018-07-12T02:11:59.689Z,98.50
2018-07-12T02:14:27.060Z,98.40
2018-07-12T02:16:54.367Z,98.50
2018-07-12T02:19:21.558Z,98.60
2018-07-12T02:21:48.797Z,98.90
2018-07-12T02:24:16.103Z,99.10
2018-07-12T02:26:43.484Z,99.30
2018-07-12T02:29:10.727Z,99.40
2018-07-12T02:31:38.071Z,99.30
2018-07-12T02:34:05.288Z,99.30
2018-07-12T02:36:32.609Z,99.30
2018-07-12T02:38:59.839Z,99.00
2018-07-12T02:41:27.105Z,99.00
2018-07-12T02:43:54.398Z,99.00
2018-07-12T02:46:22.021Z,99.00
2018-07-12T02:48:49.239Z,99.00
2018-07-12T02:51:16.511Z,99.10
2018-07-12T02:53:43.721Z,99.00
2018-07-12T02:56:11.182Z,99.10
2018-07-12T02:58:38.417Z,99.40
2018-07-12T03:01:05.737Z,99.60
2018-07-12T03:03:32.996Z,99.60
2018-07-12T03:06:00.268Z,99.90
2018-07-12T03:08:27.515Z,99.70
2018-07-12T03:10:54.789Z,99.90
2018-07-12T03:13:22.049Z,99.90
2018-07-12T03:15:49.316Z,99.90
2018-07-12T03:18:16.551Z,99.90
2018-07-12T03:20:43.807Z,99.90
2018-07-12T03:23:11.036Z,99.70
2018-07-12T03:25:38.277Z,99.80
2018-07-12T03:28:05.475Z,99.90
2018-07-12T03:30:32.796Z,99.90
2018-07-12T03:33:00.002Z,99.90
2018-07-12T03:35:27.562Z,99.90
2018-07-12T03:37:54.805Z,99.90
2018-07-12T03:40:23.118Z,99.80
2018-07-12T03:42:50.319Z,99.90
2018-07-12T03:45:17.572Z,99.90
2018-07-12T03:47:44.837Z,99.90
2018-07-12T03:50:12.068Z,99.90
2018-07-12T03:52:39.279Z,99.90
2018-07-12T03:55:06.576Z,99.90
2018-07-12T03:57:33.783Z,99.90
2018-07-12T04:02:28.541Z,99.90
2018-07-12T04:05:02.861Z,99.90
2018-07-12T04:07:30.063Z,99.90
2018-07-12T04:09:57.273Z,99.90
2018-07-12T04:12:24.539Z,99.90
2018-07-12T04:14:51.760Z,99.90
2018-07-12T04:17:23.964Z,99.90
2018-07-12T04:19:51.202Z,99.90
2018-07-12T04:22:18.440Z,99.90
2018-07-12T04:24:45.660Z,99.60
2018-07-12T04:27:13.004Z,99.50
2018-07-12T04:29:40.210Z,99.50
2018-07-12T04:32:07.449Z,99.60
2018-07-12T04:34:34.761Z,99.60
2018-07-12T04:37:01.932Z,99.50
2018-07-12T04:39:29.179Z,99.50
2018-07-12T04:41:56.454Z,99.40
2018-07-12T04:44:25.489Z,99.60
2018-07-12T04:49:21.157Z,99.50
2018-07-12T04:51:48.559Z,99.40
2018-07-12T04:54:15.778Z,99.40
2018-07-12T04:56:43.019Z,99.00
2018-07-12T04:59:10.267Z,99.00
2018-07-12T05:01:37.476Z,98.90
2018-07-12T05:06:32.386Z,98.70
2018-07-12T05:08:59.604Z,98.30
2018-07-12T05:11:26.840Z,98.20
2018-07-12T05:13:54.568Z,98.30
2018-07-12T05:16:22.545Z,98.00
2018-07-12T05:18:49.820Z,98.10
2018-07-12T05:21:17.295Z,98.00
2018-07-12T05:23:44.524Z,98.00
2018-07-12T05:26:11.771Z,97.70
2018-07-12T05:28:38.996Z,97.30
2018-07-12T05:31:06.439Z,97.10
2018-07-12T05:33:33.628Z,97.00
2018-07-12T05:36:08.178Z,96.90
2018-07-12T05:38:36.433Z,96.70
2018-07-12T05:41:04.699Z,96.80
2018-07-12T05:43:33.045Z,96.70
2018-07-12T05:46:01.414Z,96.40
2018-07-12T05:48:29.687Z,96.50
2018-07-12T05:50:57.895Z,96.70
2018-07-12T05:53:26.140Z,96.60
2018-07-12T05:55:54.589Z,96.60
2018-07-12T05:58:22.825Z,96.30
2018-07-12T06:00:51.081Z,96.10
2018-07-12T06:03:19.340Z,96.20
2018-07-12T06:05:47.643Z,96.40
2018-07-12T06:08:15.870Z,96.30
2018-07-12T06:10:44.136Z,96.00
2018-07-12T06:13:12.410Z,95.80
2018-07-12T06:15:40.750Z,95.60
2018-07-12T06:18:08.932Z,95.20
2018-07-12T06:20:37.229Z,95.30
2018-07-12T06:23:05.487Z,95.70
2018-07-12T06:25:33.795Z,95.70
2018-07-12T06:28:02.052Z,95.90
2018-07-12T06:30:30.320Z,95.80
2018-07-12T06:32:58.542Z,95.70
2018-07-12T06:37:54.774Z,95.30
2018-07-12T06:40:22.992Z,95.10
2018-07-12T06:42:51.236Z,95.20
2018-07-12T06:45:19.444Z,95.70
2018-07-12T06:47:47.621Z,95.70
2018-07-12T06:50:15.894Z,95.20
2018-07-12T06:52:44.165Z,95.20
2018-07-12T06:57:40.315Z,94.30
2018-07-12T07:00:08.546Z,94.50
2018-07-12T07:02:36.831Z,95.00
2018-07-12T07:05:05.180Z,95.20
2018-07-12T07:07:33.454Z,95.00
2018-07-12T07:10:01.642Z,95.00
2018-07-12T07:12:29.840Z,94.80
2018-07-12T07:14:58.284Z,94.50
2018-07-12T07:17:26.571Z,94.60
2018-07-12T07:19:54.821Z,94.70
2018-07-12T07:22:23.157Z,94.10
2018-07-12T07:24:51.566Z,93.70
2018-07-12T07:27:19.831Z,94.00
2018-07-12T07:29:48.086Z,93.60
2018-07-12T07:32:16.275Z,93.80
2018-07-12T07:34:44.621Z,93.80
2018-07-12T07:37:12.831Z,94.00
2018-07-12T07:39:41.090Z,94.20
2018-07-12T07:42:09.328Z,93.80
2018-07-12T07:44:37.559Z,93.40
2018-07-12T07:47:05.766Z,93.00
2018-07-12T07:49:33.945Z,92.40
2018-07-12T07:52:02.218Z,93.00
2018-07-12T07:54:30.440Z,93.20
2018-07-12T07:56:58.721Z,93.00
2018-07-12T07:59:26.970Z,93.10
2018-07-12T08:01:55.212Z,93.00
2018-07-12T08:04:23.558Z,93.20
2018-07-12T08:06:51.751Z,93.70
2018-07-12T08:09:20.061Z,93.70
2018-07-12T08:11:48.317Z,92.50
2018-07-12T08:14:16.536Z,92.50
2018-07-12T08:16:44.755Z,92.90
2018-07-12T08:19:12.996Z,92.60
2018-07-12T08:21:41.210Z,92.00
2018-07-12T08:24:09.506Z,92.30
2018-07-12T08:26:38.453Z,92.70
2018-07-12T08:29:06.662Z,92.60
2018-07-12T08:31:34.940Z,92.20
2018-07-12T08:34:03.208Z,92.20
2018-07-12T08:36:31.422Z,92.40
2018-07-12T08:38:59.642Z,92.40
2018-07-12T08:41:27.878Z,91.80
2018-07-12T08:43:56.152Z,92.10
2018-07-12T08:46:24.386Z,92.70
2018-07-12T08:48:52.678Z,91.40
2018-07-12T08:51:20.887Z,91.50
2018-07-12T08:53:49.095Z,91.80
2018-07-12T08:56:17.324Z,92.00
2018-07-12T08:58:45.567Z,92.20
2018-07-12T09:01:13.774Z,91.50
2018-07-12T09:03:42.002Z,91.50
2018-07-12T09:06:10.352Z,91.50
2018-07-12T09:08:38.556Z,91.50
2018-07-12T09:11:07.043Z,90.60
2018-07-12T09:13:35.252Z,91.20
2018-07-12T09:16:03.559Z,90.50
2018-07-12T09:18:31.805Z,90.70
2018-07-12T09:21:00.038Z,90.90
2018-07-12T09:23:28.288Z,91.10
2018-07-12T09:28:24.602Z,91.20
2018-07-12T09:30:52.824Z,91.30
2018-07-12T09:33:21.076Z,91.20
2018-07-12T09:35:50.426Z,91.00
2018-07-12T09:38:30.090Z,90.50
2018-07-12T09:40:58.358Z,90.80
2018-07-12T09:43:26.600Z,90.60
2018-07-12T09:45:54.927Z,90.90
2018-07-12T09:48:23.109Z,90.80
2018-07-12T09:50:51.349Z,91.00
2018-07-12T09:53:19.542Z,91.00
2018-07-12T09:55:47.856Z,91.00
2018-07-12T09:58:24.890Z,90.20
2018-07-12T10:00:58.436Z,90.30
2018-07-12T10:03:57.277Z,90.60
2018-07-12T10:06:30.806Z,90.80
2018-07-12T10:09:04.327Z,90.70
2018-07-12T10:11:38.010Z,90.40
2018-07-12T10:14:11.711Z,91.30
2018-07-12T10:16:45.305Z,91.30
2018-07-12T10:19:13.656Z,91.00
2018-07-12T10:21:41.988Z,91.40
2018-07-12T10:24:10.160Z,91.10
2018-07-12T10:26:38.443Z,90.80
2018-07-12T10:29:06.660Z,90.70
2018-07-12T10:31:34.949Z,90.60
2018-07-12T10:34:03.142Z,90.80
2018-07-12T10:36:31.415Z,91.20
2018-07-12T10:38:59.667Z,91.20
2018-07-12T10:41:27.859Z,90.90
2018-07-12T10:43:56.033Z,90.90
2018-07-12T10:46:24.228Z,91.30
2018-07-12T10:48:52.472Z,90.80
2018-07-12T10:51:20.712Z,91.10
2018-07-12T10:53:48.967Z,91.00
2018-07-12T10:56:17.284Z,90.70
2018-07-12T10:58:45.619Z,90.80
2018-07-12T11:01:13.882Z,90.90
2018-07-12T11:03:42.116Z,90.70
2018-07-12T11:06:10.515Z,90.60
2018-07-12T11:08:38.745Z,91.20
2018-07-12T11:11:06.964Z,91.20
2018-07-12T11:13:53.112Z,91.30
2018-07-12T11:16:21.548Z,91.70
2018-07-12T11:18:49.940Z,91.20
2018-07-12T11:21:18.273Z,90.90
2018-07-12T11:23:46.391Z,90.90
2018-07-12T11:26:14.909Z,91.10
2018-07-12T11:28:43.446Z,90.80
2018-07-12T11:31:11.636Z,91.30
2018-07-12T11:33:43.084Z,91.20
2018-07-12T11:36:11.696Z,90.90
2018-07-12T11:38:41.128Z,91.20
2018-07-12T11:41:09.785Z,91.60
2018-07-12T11:43:38.083Z,91.20
2018-07-12T11:46:07.644Z,90.50
2018-07-12T11:48:37.046Z,91.20
2018-07-12T11:51:05.212Z,90.60
2018-07-12T11:53:33.458Z,91.30
2018-07-12T11:56:01.695Z,91.10
2018-07-12T11:58:29.905Z,91.00
2018-07-12T12:03:27.373Z,90.50
2018-07-12T12:05:55.621Z,90.90
2018-07-12T12:08:27.436Z,90.00
2018-07-12T12:10:55.744Z,90.60
2018-07-12T12:13:23.906Z,90.40
2018-07-12T12:15:52.215Z,91.10
2018-07-12T12:18:20.494Z,90.60
2018-07-12T12:20:48.752Z,91.10
2018-07-12T12:23:17.045Z,91.00
2018-07-12T12:25:45.344Z,90.20
2018-07-12T12:28:13.632Z,90.60
2018-07-12T12:30:41.868Z,91.20
2018-07-12T12:33:10.102Z,91.10
2018-07-12T12:35:38.420Z,90.70
2018-07-12T12:38:06.653Z,90.70
2018-07-12T12:40:41.503Z,91.10
2018-07-12T12:43:09.698Z,90.80
2018-07-12T12:45:37.974Z,90.50
2018-07-12T12:48:06.198Z,91.00
2018-07-12T12:50:34.402Z,90.60
2018-07-12T12:53:02.670Z,90.90
2018-07-12T12:55:30.945Z,90.80
2018-07-12T12:57:59.190Z,90.80
2018-07-12T13:00:27.422Z,90.60
2018-07-12T13:02:55.640Z,90.50
2018-07-12T13:05:23.869Z,90.30
2018-07-12T13:07:52.092Z,90.60
2018-07-12T13:10:20.347Z,89.70
2018-07-12T13:12:48.606Z,90.10
2018-07-12T13:15:17.046Z,90.20
2018-07-12T13:17:45.258Z,90.10
2018-07-12T13:20:13.477Z,90.70
2018-07-12T13:22:41.666Z,90.20
2018-07-12T13:25:10.135Z,90.20
2018-07-12T13:27:38.584Z,90.40
2018-07-12T13:30:06.810Z,90.40
2018-07-12T13:32:35.068Z,90.50
2018-07-12T13:35:03.419Z,90.70
2018-07-12T13:37:31.613Z,90.40
2018-07-12T13:39:59.848Z,90.50
2018-07-12T13:42:28.032Z,90.70
2018-07-12T13:44:56.457Z,90.40
2018-07-12T13:47:24.670Z,90.80
2018-07-12T13:49:52.885Z,90.40
2018-07-12T13:52:21.087Z,90.20
2018-07-12T13:54:49.387Z,91.00
2018-07-12T13:57:17.660Z,91.00
2018-07-12T13:59:45.938Z,90.50
2018-07-12T14:02:14.169Z,90.40
2018-07-12T14:04:43.525Z,90.50
2018-07-12T14:07:11.726Z,90.00
2018-07-12T14:09:39.994Z,90.70
2018-07-12T14:12:08.156Z,90.40
2018-07-12T14:14:36.623Z,90.90
2018-07-12T14:17:05.009Z,90.70
2018-07-12T14:19:33.214Z,90.50
2018-07-12T14:22:01.474Z,90.20
2018-07-12T14:24:30.114Z,89.30
2018-07-12T14:26:58.539Z,89.80
2018-07-12T14:29:26.954Z,89.70
2018-07-12T14:31:55.328Z,90.40
2018-07-12T14:34:23.693Z,90.00
2018-07-12T14:36:52.071Z,90.60
2018-07-12T14:39:20.376Z,90.10
2018-07-12T14:41:48.903Z,90.10
2018-07-12T14:44:17.556Z,90.20
2018-07-12T14:46:45.946Z,90.30
2018-07-12T14:49:14.385Z,90.30
2018-07-12T14:51:42.662Z,90.20
2018-07-12T14:54:11.057Z,90.20
2018-07-12T14:56:39.397Z,90.10
2018-07-12T14:59:07.704Z,89.60
2018-07-12T15:01:35.960Z,88.80
2018-07-12T15:04:04.316Z,90.20
2018-07-12T15:06:32.605Z,90.00
2018-07-12T15:09:01.056Z,89.80
2018-07-12T15:11:29.388Z,90.20
2018-07-12T15:13:57.820Z,90.00
2018-07-12T15:16:26.207Z,89.50
2018-07-12T15:18:54.448Z,90.20
2018-07-12T15:21:22.817Z,89.70
2018-07-12T15:23:51.145Z,89.20
2018-07-12T15:26:19.384Z,90.20
2018-07-12T15:28:47.803Z,89.80
2018-07-12T15:31:16.104Z,89.60
2018-07-12T15:33:44.344Z,89.30
2018-07-12T15:36:12.753Z,88.60
2018-07-12T15:38:40.995Z,88.80
2018-07-12T15:41:09.376Z,89.60
2018-07-12T15:43:37.605Z,89.10
2018-07-12T15:46:06.131Z,88.10
2018-07-12T15:48:34.351Z,88.50
2018-07-12T15:51:02.588Z,89.30
2018-07-12T15:53:30.796Z,89.80
2018-07-12T15:55:59.292Z,89.00
2018-07-12T15:58:27.528Z,90.00
2018-07-12T16:00:55.752Z,89.40
2018-07-12T16:03:23.963Z,90.00
2018-07-12T16:05:52.388Z,90.10
2018-07-12T16:08:20.537Z,90.20
2018-07-12T16:10:48.745Z,88.90
2018-07-12T16:15:44.900Z,90.00
2018-07-12T16:18:13.123Z,90.10
2018-07-12T16:20:41.440Z,90.00
2018-07-12T16:23:09.634Z,90.20
2018-07-12T16:25:39.834Z,89.70
2018-07-12T16:28:08.011Z,90.10
2018-07-12T16:30:36.263Z,90.30
2018-07-12T16:33:04.518Z,90.10
2018-07-12T16:35:32.781Z,90.50
2018-07-12T16:38:01.015Z,90.60
2018-07-12T16:40:29.230Z,90.60
2018-07-12T16:42:57.471Z,90.50
2018-07-12T16:45:26.921Z,90.60
2018-07-12T16:47:55.146Z,90.80
2018-07-12T16:50:23.410Z,90.70
2018-07-12T16:52:51.973Z,90.70
2018-07-12T16:55:20.193Z,91.00
2018-07-12T16:57:48.440Z,90.80
2018-07-12T17:00:18.987Z,91.10
2018-07-12T17:02:47.858Z,91.20
2018-07-12T17:05:16.193Z,90.90
2018-07-12T17:07:44.587Z,90.90
2018-07-12T17:10:12.831Z,91.30
2018-07-12T17:12:41.209Z,91.80
2018-07-12T17:15:09.524Z,91.20
2018-07-12T17:17:37.727Z,91.40
2018-07-12T17:20:05.916Z,91.70
2018-07-12T17:22:34.228Z,91.50
2018-07-12T17:27:30.465Z,91.70
2018-07-12T17:29:58.768Z,91.90
2018-07-12T17:32:27.032Z,91.70
2018-07-12T17:34:55.245Z,92.10
2018-07-12T17:37:23.417Z,92.30
2018-07-12T17:39:51.693Z,91.80
2018-07-12T17:42:20.028Z,91.20
2018-07-12T17:44:48.355Z,91.20
2018-07-12T17:47:16.700Z,91.10
2018-07-12T17:49:45.058Z,90.60
2018-07-12T17:54:41.727Z,90.90
2018-07-12T17:57:10.098Z,91.00
2018-07-12T17:59:38.333Z,90.80
2018-07-12T18:02:06.549Z,90.80
2018-07-12T18:04:35.015Z,90.50
2018-07-12T18:07:03.235Z,90.80
2018-07-12T18:09:31.473Z,90.90
2018-07-12T18:11:59.846Z,90.50
2018-07-12T18:14:28.355Z,90.80
2018-07-12T18:16:56.641Z,91.00
2018-07-12T18:19:25.239Z,90.90
2018-07-12T18:21:53.640Z,90.70
2018-07-12T18:24:21.925Z,90.50
2018-07-12T18:26:50.542Z,90.60
2018-07-12T18:29:18.789Z,90.70
2018-07-12T18:31:47.057Z,90.60
2018-07-12T18:34:16.291Z,90.80
2018-07-12T18:36:44.580Z,90.70
2018-07-12T18:39:12.785Z,90.80
2018-07-12T18:41:40.995Z,90.80
2018-07-12T18:44:09.185Z,90.90
2018-07-12T18:46:37.472Z,91.10
2018-07-12T18:49:05.731Z,91.30
2018-07-12T18:51:33.955Z,91.40
2018-07-12T18:54:02.191Z,90.70
2018-07-12T18:56:30.449Z,90.50
2018-07-12T18:58:58.745Z,89.00
2018-07-12T19:01:26.990Z,88.40
2018-07-12T19:03:55.229Z,88.60
2018-07-12T19:06:23.980Z,88.80
2018-07-12T19:08:52.284Z,89.10
2018-07-12T19:11:20.504Z,88.70
2018-07-12T19:13:48.735Z,87.60
2018-07-12T19:16:17.378Z,87.20
2018-07-12T19:18:45.812Z,88.10
2018-07-12T19:23:42.205Z,88.70
2018-07-12T19:26:10.685Z,88.60
2018-07-12T19:28:38.964Z,89.40
2018-07-12T19:31:07.169Z,89.90
2018-07-12T19:33:35.453Z,90.00
2018-07-12T19:36:04.023Z,90.00
2018-07-12T19:38:32.306Z,89.70
2018-07-12T19:41:00.858Z,89.70
2018-07-12T19:43:29.432Z,89.90
2018-07-12T19:52:42.713Z,90.20
2018-07-12T19:55:10.967Z,90.90
2018-07-12T19:57:39.245Z,90.80
2018-07-12T20:00:07.772Z,90.60
2018-07-12T20:02:36.009Z,90.70
2018-07-12T20:05:05.313Z,90.80
2018-07-12T20:07:33.845Z,90.90
2018-07-12T20:10:02.081Z,91.00
2018-07-12T20:12:30.485Z,90.90
2018-07-12T20:14:58.859Z,91.10
2018-07-12T20:17:27.108Z,91.30
2018-07-12T20:19:55.325Z,91.60
2018-07-12T20:22:23.585Z,91.80
2018-07-12T20:24:52.909Z,92.10
2018-07-12T20:27:21.138Z,92.20
2018-07-12T20:29:49.359Z,92.50
2018-07-12T20:32:17.568Z,92.60
2018-07-12T20:34:45.986Z,92.30
2018-07-12T20:37:14.173Z,92.30
2018-07-12T20:39:42.393Z,92.40
2018-07-12T20:42:10.615Z,92.30
2018-07-12T20:44:38.855Z,92.30
2018-07-12T20:47:07.143Z,91.90
2018-07-12T20:49:35.480Z,91.80
2018-07-12T20:52:03.741Z,91.90
2018-07-12T20:54:32.126Z,92.00
2018-07-12T20:57:00.422Z,92.20
2018-07-12T20:59:28.712Z,92.20
2018-07-12T21:01:57.117Z,92.30
2018-07-12T21:04:25.567Z,92.50
2018-07-12T21:06:53.804Z,92.90
2018-07-12T21:09:22.082Z,93.10
2018-07-12T21:11:50.427Z,93.10
2018-07-12T21:14:18.849Z,93.30
2018-07-12T21:16:47.118Z,93.60
2018-07-12T21:19:15.360Z,93.80
2018-07-12T21:21:43.556Z,93.70
2018-07-12T21:24:11.957Z,93.60
2018-07-12T21:26:40.253Z,93.90
2018-07-12T21:29:08.446Z,94.00
2018-07-12T21:31:36.672Z,94.20
2018-07-12T21:34:05.161Z,94.20
2018-07-12T21:36:33.376Z,94.30
2018-07-12T21:39:01.688Z,94.40
2018-07-12T21:43:57.920Z,94.60
2018-07-12T21:46:26.208Z,94.60
2018-07-12T21:48:54.419Z,94.60
2018-07-12T21:51:22.686Z,94.70
2018-07-12T21:53:50.949Z,94.90
2018-07-12T21:56:19.305Z,95.10
2018-07-12T21:58:47.577Z,95.10
2018-07-12T22:01:15.824Z,95.10
2018-07-12T22:03:44.030Z,95.00
2018-07-12T22:06:12.345Z,95.10
2018-07-12T22:08:40.541Z,95.00
2018-07-12T22:11:08.828Z,95.10
2018-07-12T22:13:37.883Z,95.00
2018-07-12T22:16:06.316Z,95.10
2018-07-12T22:18:34.749Z,95.10
2018-07-12T22:21:02.990Z,95.00
2018-07-12T22:23:31.214Z,95.10
2018-07-12T22:25:59.578Z,95.20
2018-07-12T22:28:27.854Z,95.20
2018-07-12T22:30:56.081Z,95.10
2018-07-12T22:35:52.460Z,95.20
2018-07-12T22:38:20.664Z,95.20
2018-07-12T22:40:48.881Z,95.30
2018-07-12T22:43:17.114Z,95.40
2018-07-12T22:45:45.374Z,95.40
2018-07-12T22:48:13.641Z,95.50
2018-07-12T22:50:41.727Z,95.50
2018-07-12T22:53:09.961Z,95.60
2018-07-12T22:55:38.254Z,95.60
2018-07-12T22:58:12.920Z,95.70
2018-07-12T23:00:41.101Z,95.70
2018-07-12T23:03:09.372Z,95.70
2018-07-12T23:05:37.705Z,95.80
2018-07-12T23:08:05.923Z,95.90
2018-07-12T23:10:34.108Z,96.10
2018-07-12T23:13:02.296Z,96.10
2018-07-12T23:17:59.354Z,96.10
2018-07-12T23:20:27.535Z,95.90
2018-07-12T23:22:55.747Z,96.00
2018-07-12T23:25:24.189Z,96.10
2018-07-12T23:27:52.458Z,96.20
2018-07-12T23:30:20.707Z,96.10
2018-07-12T23:32:48.898Z,96.00
2018-07-12T23:37:45.358Z,95.90
2018-07-12T23:40:13.631Z,96.10
2018-07-12T23:42:41.860Z,96.20
2018-07-12T23:45:10.177Z,96.40
2018-07-12T23:47:38.357Z,96.20
2018-07-12T23:50:06.633Z,96.10
2018-07-12T23:52:34.818Z,96.20
2018-07-12T23:55:03.272Z,96.40
2018-07-12T23:57:31.484Z,96.60
2018-07-12T23:59:59.774Z,96.60
